PWSweather.com
Personal Weather Stations
Station Observations
KFLSTJOH36
Aberdeen Highland Point, Saint Johns, FL 32259

Aberdeen Highland PointSaint Johns, FL 32259

Lat: 30.082981, Lon: -81.59522

Elevation: 60

Station Type: Acurite 5-in-1 Weather Sensor

High Low Average
Temperature 99.9°F37.7°C 78.1°F25.6°C 85.9°F29.9°C
Dew Point 81.9°F27.7°C 74.2°F23.4°C 77.4°F25.2°C
Winds 15.0 mph 24.1 kmh Calm Calm 2.0 mph S3.2 kmh S
Wind Gusts -- -- --
Humidity 91% 48% 77%
Pressure 30.11 in1019.6 mb 30.01 in1016.3 mb -
Precipitation 0.08 in2.0 mm - -
Hour Temp Dew Point Humidity Winds Wind Gusts Pressure Precip Precip Rate Daily Precip Total
12:00 AM 81.9°F27.7°C 76.9°F24.9°C 85% 1.0 mph S1.6 kmh S -- 30.12 in1020.0 mb 0.00 in0.0 mm 0.00 in0.0 mm 0.00 in0.0 mm
12:05 AM 82.4°F28.0°C 77.4°F25.2°C 85% Calm Calm -- 30.12 in1020.0 mb 0.00 in0.0 mm 0.00 in0.0 mm 0.00 in0.0 mm
12:10 AM 82.8°F28.2°C 77.4°F25.2°C 84% Calm Calm -- 30.12 in1020.0 mb 0.00 in0.0 mm 0.00 in0.0 mm 0.00 in0.0 mm
12:15 AM 82.6°F28.1°C 77.3°F25.2°C 84% Calm Calm -- 30.12 in1020.0 mb 0.00 in0.0 mm 0.00 in0.0 mm 0.00 in0.0 mm
12:20 AM 82.6°F28.1°C 77.3°F25.2°C 84% 1.0 mph SE1.6 kmh SE -- 30.12 in1020.0 mb 0.00 in0.0 mm 0.00 in0.0 mm 0.00 in0.0 mm
12:25 AM 82.4°F28.0°C 77.1°F25.1°C 84% Calm Calm -- 30.12 in1020.0 mb 0.00 in0.0 mm 0.00 in0.0 mm 0.00 in0.0 mm
12:30 AM 82.4°F28.0°C 77.1°F25.1°C 84% Calm Calm -- 30.11 in1019.6 mb 0.00 in0.0 mm 0.00 in0.0 mm 0.00 in0.0 mm
12:35 AM 82.2°F27.9°C 76.9°F24.9°C 84% Calm Calm -- 30.11 in1019.6 mb 0.00 in0.0 mm 0.00 in0.0 mm 0.00 in0.0 mm
12:40 AM 82.0°F27.8°C 76.7°F24.8°C 84% Calm Calm -- 30.11 in1019.6 mb 0.00 in0.0 mm 0.00 in0.0 mm 0.00 in0.0 mm
12:45 AM 82.0°F27.8°C 76.7°F24.8°C 84% Calm Calm -- 30.11 in1019.6 mb 0.00 in0.0 mm 0.00 in0.0 mm 0.00 in0.0 mm
12:50 AM 81.7°F27.6°C 76.7°F24.8°C 85% Calm Calm -- 30.11 in1019.6 mb 0.00 in0.0 mm 0.00 in0.0 mm 0.00 in0.0 mm
12:55 AM 81.7°F27.6°C 76.7°F24.8°C 85% Calm Calm -- 30.11 in1019.6 mb 0.00 in0.0 mm 0.00 in0.0 mm 0.00 in0.0 mm
01:00 AM 81.0°F27.2°C 76.4°F24.7°C 86% Calm Calm -- 30.11 in1019.6 mb 0.00 in0.0 mm 0.00 in0.0 mm 0.00 in0.0 mm
01:05 AM 81.1°F27.3°C 76.5°F24.7°C 86% Calm Calm -- 30.11 in1019.6 mb 0.00 in0.0 mm 0.00 in0.0 mm 0.00 in0.0 mm
01:10 AM 81.3°F27.4°C 76.7°F24.8°C 86% Calm Calm -- 30.10 in1019.3 mb 0.00 in0.0 mm 0.00 in0.0 mm 0.00 in0.0 mm
01:15 AM 81.7°F27.6°C 77.1°F25.1°C 86% Calm Calm -- 30.10 in1019.3 mb 0.00 in0.0 mm 0.00 in0.0 mm 0.00 in0.0 mm
01:20 AM 81.5°F27.5°C 76.5°F24.7°C 85% Calm Calm -- 30.10 in1019.3 mb 0.00 in0.0 mm 0.00 in0.0 mm 0.00 in0.0 mm
01:25 AM 81.3°F27.4°C 76.7°F24.8°C 86% Calm Calm -- 30.10 in1019.3 mb 0.00 in0.0 mm 0.00 in0.0 mm 0.00 in0.0 mm
01:30 AM 81.3°F27.4°C 76.4°F24.7°C 85% Calm Calm -- 30.09 in1019.0 mb 0.00 in0.0 mm 0.00 in0.0 mm 0.00 in0.0 mm
01:35 AM 81.0°F27.2°C 76.0°F24.4°C 85% Calm Calm -- 30.09 in1019.0 mb 0.00 in0.0 mm 0.00 in0.0 mm 0.00 in0.0 mm
01:40 AM 80.4°F26.9°C 75.8°F24.3°C 86% Calm Calm -- 30.09 in1019.0 mb 0.00 in0.0 mm 0.00 in0.0 mm 0.00 in0.0 mm
01:45 AM 80.2°F26.8°C 76.0°F24.4°C 87% Calm Calm -- 30.09 in1019.0 mb 0.00 in0.0 mm 0.00 in0.0 mm 0.00 in0.0 mm
01:50 AM 80.6°F27.0°C 76.0°F24.4°C 86% Calm Calm -- 30.09 in1019.0 mb 0.00 in0.0 mm 0.00 in0.0 mm 0.00 in0.0 mm
01:55 AM 79.7°F26.5°C 75.5°F24.2°C 87% Calm Calm -- 30.09 in1019.0 mb 0.00 in0.0 mm 0.00 in0.0 mm 0.00 in0.0 mm
02:00 AM 80.4°F26.9°C 76.2°F24.6°C 87% Calm Calm -- 30.09 in1019.0 mb 0.00 in0.0 mm 0.00 in0.0 mm 0.00 in0.0 mm
02:05 AM 80.6°F27.0°C 76.4°F24.7°C 87% Calm Calm -- 30.09 in1019.0 mb 0.00 in0.0 mm 0.00 in0.0 mm 0.00 in0.0 mm
02:10 AM 80.4°F26.9°C 76.2°F24.6°C 87% Calm Calm -- 30.09 in1019.0 mb 0.00 in0.0 mm 0.00 in0.0 mm 0.00 in0.0 mm
02:15 AM 80.6°F27.0°C 76.4°F24.7°C 87% Calm Calm -- 30.08 in1018.6 mb 0.00 in0.0 mm 0.00 in0.0 mm 0.00 in0.0 mm
02:20 AM 80.4°F26.9°C 76.2°F24.6°C 87% Calm Calm -- 30.08 in1018.6 mb 0.00 in0.0 mm 0.00 in0.0 mm 0.00 in0.0 mm
02:30 AM 80.2°F26.8°C 76.0°F24.4°C 87% Calm Calm -- 30.08 in1018.6 mb 0.00 in0.0 mm 0.00 in0.0 mm 0.00 in0.0 mm
02:35 AM 79.7°F26.5°C 75.5°F24.2°C 87% Calm Calm -- 30.08 in1018.6 mb 0.00 in0.0 mm 0.00 in0.0 mm 0.00 in0.0 mm
02:40 AM 79.5°F26.4°C 75.6°F24.2°C 88% Calm Calm -- 30.08 in1018.6 mb 0.00 in0.0 mm 0.00 in0.0 mm 0.00 in0.0 mm
02:45 AM 79.5°F26.4°C 75.6°F24.2°C 88% Calm Calm -- 30.09 in1019.0 mb 0.00 in0.0 mm 0.00 in0.0 mm 0.00 in0.0 mm
02:50 AM 79.5°F26.4°C 75.6°F24.2°C 88% Calm Calm -- 30.08 in1018.6 mb 0.00 in0.0 mm 0.00 in0.0 mm 0.00 in0.0 mm
02:55 AM 79.5°F26.4°C 75.6°F24.2°C 88% Calm Calm -- 30.08 in1018.6 mb 0.00 in0.0 mm 0.00 in0.0 mm 0.00 in0.0 mm
03:00 AM 79.9°F26.6°C 76.0°F24.4°C 88% Calm Calm -- 30.08 in1018.6 mb 0.00 in0.0 mm 0.00 in0.0 mm 0.00 in0.0 mm
03:05 AM 79.5°F26.4°C 75.6°F24.2°C 88% Calm Calm -- 30.08 in1018.6 mb 0.00 in0.0 mm 0.00 in0.0 mm 0.00 in0.0 mm
03:10 AM 79.3°F26.3°C 75.5°F24.2°C 88% Calm Calm -- 30.08 in1018.6 mb 0.00 in0.0 mm 0.00 in0.0 mm 0.00 in0.0 mm
03:15 AM 79.2°F26.2°C 75.3°F24.1°C 88% Calm Calm -- 30.08 in1018.6 mb 0.00 in0.0 mm 0.00 in0.0 mm 0.00 in0.0 mm
03:20 AM 79.0°F26.1°C 75.1°F23.9°C 88% Calm Calm -- 30.08 in1018.6 mb 0.00 in0.0 mm 0.00 in0.0 mm 0.00 in0.0 mm
03:25 AM 79.2°F26.2°C 75.3°F24.1°C 88% Calm Calm -- 30.08 in1018.6 mb 0.00 in0.0 mm 0.00 in0.0 mm 0.00 in0.0 mm
03:30 AM 79.0°F26.1°C 75.1°F23.9°C 88% Calm Calm -- 30.08 in1018.6 mb 0.00 in0.0 mm 0.00 in0.0 mm 0.00 in0.0 mm
03:35 AM 79.2°F26.2°C 75.3°F24.1°C 88% Calm Calm -- 30.08 in1018.6 mb 0.00 in0.0 mm 0.00 in0.0 mm 0.00 in0.0 mm
03:40 AM 79.2°F26.2°C 75.3°F24.1°C 88% Calm Calm -- 30.08 in1018.6 mb 0.00 in0.0 mm 0.00 in0.0 mm 0.00 in0.0 mm
03:45 AM 79.0°F26.1°C 75.5°F24.2°C 89% Calm Calm -- 30.08 in1018.6 mb 0.00 in0.0 mm 0.00 in0.0 mm 0.00 in0.0 mm
03:50 AM 79.2°F26.2°C 75.3°F24.1°C 88% Calm Calm -- 30.08 in1018.6 mb 0.00 in0.0 mm 0.00 in0.0 mm 0.00 in0.0 mm
04:05 AM 79.0°F26.1°C 75.1°F23.9°C 88% Calm Calm -- 30.08 in1018.6 mb 0.00 in0.0 mm 0.00 in0.0 mm 0.00 in0.0 mm
04:10 AM 79.2°F26.2°C 75.3°F24.1°C 88% Calm Calm -- 30.08 in1018.6 mb 0.00 in0.0 mm 0.00 in0.0 mm 0.00 in0.0 mm
04:15 AM 79.3°F26.3°C 75.5°F24.2°C 88% Calm Calm -- 30.07 in1018.3 mb 0.00 in0.0 mm 0.00 in0.0 mm 0.00 in0.0 mm
04:20 AM 79.2°F26.2°C 75.3°F24.1°C 88% Calm Calm -- 30.07 in1018.3 mb 0.00 in0.0 mm 0.00 in0.0 mm 0.00 in0.0 mm
04:25 AM 78.8°F26.0°C 74.9°F23.8°C 88% Calm Calm -- 30.07 in1018.3 mb 0.00 in0.0 mm 0.00 in0.0 mm 0.00 in0.0 mm
04:35 AM 78.4°F25.8°C 74.6°F23.7°C 88% Calm Calm -- 30.07 in1018.3 mb 0.00 in0.0 mm 0.00 in0.0 mm 0.00 in0.0 mm
04:40 AM 78.3°F25.7°C 74.7°F23.7°C 89% Calm Calm -- 30.07 in1018.3 mb 0.00 in0.0 mm 0.00 in0.0 mm 0.00 in0.0 mm
04:45 AM 78.6°F25.9°C 75.1°F23.9°C 89% Calm Calm -- 30.07 in1018.3 mb 0.00 in0.0 mm 0.00 in0.0 mm 0.00 in0.0 mm
04:50 AM 78.8°F26.0°C 74.9°F23.8°C 88% Calm Calm -- 30.07 in1018.3 mb 0.00 in0.0 mm 0.00 in0.0 mm 0.00 in0.0 mm
04:55 AM 79.2°F26.2°C 75.3°F24.1°C 88% Calm Calm -- 30.07 in1018.3 mb 0.00 in0.0 mm 0.00 in0.0 mm 0.00 in0.0 mm
05:00 AM 78.8°F26.0°C 74.9°F23.8°C 88% Calm Calm -- 30.07 in1018.3 mb 0.00 in0.0 mm 0.00 in0.0 mm 0.00 in0.0 mm
05:05 AM 79.2°F26.2°C 75.3°F24.1°C 88% Calm Calm -- 30.07 in1018.3 mb 0.00 in0.0 mm 0.00 in0.0 mm 0.00 in0.0 mm
05:10 AM 78.4°F25.8°C 74.6°F23.7°C 88% Calm Calm -- 30.07 in1018.3 mb 0.00 in0.0 mm 0.00 in0.0 mm 0.00 in0.0 mm
05:15 AM 78.6°F25.9°C 75.1°F23.9°C 89% Calm Calm -- 30.07 in1018.3 mb 0.00 in0.0 mm 0.00 in0.0 mm 0.00 in0.0 mm
05:20 AM 78.8°F26.0°C 75.3°F24.1°C 89% Calm Calm -- 30.07 in1018.3 mb 0.00 in0.0 mm 0.00 in0.0 mm 0.00 in0.0 mm
05:25 AM 78.8°F26.0°C 75.3°F24.1°C 89% Calm Calm -- 30.07 in1018.3 mb 0.00 in0.0 mm 0.00 in0.0 mm 0.00 in0.0 mm
05:30 AM 78.6°F25.9°C 75.1°F23.9°C 89% Calm Calm -- 30.07 in1018.3 mb 0.00 in0.0 mm 0.00 in0.0 mm 0.00 in0.0 mm
05:40 AM 79.0°F26.1°C 75.1°F23.9°C 88% Calm Calm -- 30.08 in1018.6 mb 0.00 in0.0 mm 0.00 in0.0 mm 0.00 in0.0 mm
05:50 AM 78.8°F26.0°C 74.9°F23.8°C 88% Calm Calm -- 30.08 in1018.6 mb 0.00 in0.0 mm 0.00 in0.0 mm 0.00 in0.0 mm
06:05 AM 78.4°F25.8°C 74.6°F23.7°C 88% Calm Calm -- 30.08 in1018.6 mb 0.00 in0.0 mm 0.00 in0.0 mm 0.00 in0.0 mm
06:10 AM 78.3°F25.7°C 74.4°F23.6°C 88% Calm Calm -- 30.08 in1018.6 mb 0.00 in0.0 mm 0.00 in0.0 mm 0.00 in0.0 mm
06:30 AM 78.1°F25.6°C 74.2°F23.4°C 88% Calm Calm -- 30.08 in1018.6 mb 0.00 in0.0 mm 0.00 in0.0 mm 0.00 in0.0 mm
06:40 AM 78.3°F25.7°C 74.4°F23.6°C 88% Calm Calm -- 30.08 in1018.6 mb 0.00 in0.0 mm 0.00 in0.0 mm 0.00 in0.0 mm
06:45 AM 78.1°F25.6°C 74.2°F23.4°C 88% Calm Calm -- 30.08 in1018.6 mb 0.00 in0.0 mm 0.00 in0.0 mm 0.00 in0.0 mm
06:50 AM 78.3°F25.7°C 74.7°F23.7°C 89% Calm Calm -- 30.08 in1018.6 mb 0.00 in0.0 mm 0.00 in0.0 mm 0.00 in0.0 mm
06:55 AM 78.4°F25.8°C 74.9°F23.8°C 89% Calm Calm -- 30.09 in1019.0 mb 0.00 in0.0 mm 0.00 in0.0 mm 0.00 in0.0 mm
07:00 AM 78.8°F26.0°C 75.3°F24.1°C 89% Calm Calm -- 30.09 in1019.0 mb 0.00 in0.0 mm 0.00 in0.0 mm 0.00 in0.0 mm
07:10 AM 78.8°F26.0°C 75.3°F24.1°C 89% Calm Calm -- 30.09 in1019.0 mb 0.00 in0.0 mm 0.00 in0.0 mm 0.00 in0.0 mm
07:15 AM 79.2°F26.2°C 75.6°F24.2°C 89% Calm Calm -- 30.09 in1019.0 mb 0.00 in0.0 mm 0.00 in0.0 mm 0.00 in0.0 mm
07:20 AM 79.7°F26.5°C 76.2°F24.6°C 89% Calm Calm -- 30.09 in1019.0 mb 0.00 in0.0 mm 0.00 in0.0 mm 0.00 in0.0 mm
07:25 AM 80.2°F26.8°C 76.7°F24.8°C 89% Calm Calm -- 30.09 in1019.0 mb 0.00 in0.0 mm 0.00 in0.0 mm 0.00 in0.0 mm
07:30 AM 79.9°F26.6°C 76.7°F24.8°C 90% Calm Calm -- 30.09 in1019.0 mb 0.00 in0.0 mm 0.00 in0.0 mm 0.00 in0.0 mm
07:35 AM 80.6°F27.0°C 77.4°F25.2°C 90% Calm Calm -- 30.10 in1019.3 mb 0.00 in0.0 mm 0.00 in0.0 mm 0.00 in0.0 mm
07:40 AM 81.5°F27.5°C 78.3°F25.7°C 90% Calm Calm -- 30.10 in1019.3 mb 0.00 in0.0 mm 0.00 in0.0 mm 0.00 in0.0 mm
07:45 AM 82.4°F28.0°C 78.5°F25.8°C 88% Calm Calm -- 30.10 in1019.3 mb 0.00 in0.0 mm 0.00 in0.0 mm 0.00 in0.0 mm
07:50 AM 82.6°F28.1°C 78.3°F25.7°C 87% Calm Calm -- 30.10 in1019.3 mb 0.00 in0.0 mm 0.00 in0.0 mm 0.00 in0.0 mm
07:55 AM 83.3°F28.5°C 78.7°F25.9°C 86% Calm Calm -- 30.10 in1019.3 mb 0.00 in0.0 mm 0.00 in0.0 mm 0.00 in0.0 mm
08:00 AM 84.0°F28.9°C 78.7°F25.9°C 84% 1.0 mph SE1.6 kmh SE -- 30.10 in1019.3 mb 0.00 in0.0 mm 0.00 in0.0 mm 0.00 in0.0 mm
08:05 AM 85.5°F29.7°C 79.7°F26.5°C 83% 1.0 mph SSW1.6 kmh SSW -- 30.10 in1019.3 mb 0.00 in0.0 mm 0.00 in0.0 mm 0.00 in0.0 mm
08:10 AM 86.4°F30.2°C 80.2°F26.8°C 82% 2.0 mph SSE3.2 kmh SSE -- 30.11 in1019.6 mb 0.00 in0.0 mm 0.00 in0.0 mm 0.00 in0.0 mm
08:15 AM 86.7°F30.4°C 79.8°F26.6°C 80% 2.0 mph SSE3.2 kmh SSE -- 30.11 in1019.6 mb 0.00 in0.0 mm 0.00 in0.0 mm 0.00 in0.0 mm
08:20 AM 87.3°F30.7°C 80.0°F26.7°C 79% 2.0 mph S3.2 kmh S -- 30.11 in1019.6 mb 0.00 in0.0 mm 0.00 in0.0 mm 0.00 in0.0 mm
08:25 AM 88.2°F31.2°C 80.4°F26.9°C 78% 2.0 mph SSE3.2 kmh SSE -- 30.11 in1019.6 mb 0.00 in0.0 mm 0.00 in0.0 mm 0.00 in0.0 mm
08:30 AM 89.4°F31.9°C 80.9°F27.2°C 76% 2.0 mph S3.2 kmh S -- 30.11 in1019.6 mb 0.00 in0.0 mm 0.00 in0.0 mm 0.00 in0.0 mm
08:35 AM 89.1°F31.7°C 80.5°F26.9°C 76% 4.0 mph SE6.4 kmh SE -- 30.11 in1019.6 mb 0.00 in0.0 mm 0.00 in0.0 mm 0.00 in0.0 mm
08:40 AM 90.3°F32.4°C 80.9°F27.2°C 74% 2.0 mph SE3.2 kmh SE -- 30.11 in1019.6 mb 0.00 in0.0 mm 0.00 in0.0 mm 0.00 in0.0 mm
08:45 AM 89.8°F32.1°C 80.4°F26.9°C 74% 3.0 mph SW4.8 kmh SW -- 30.11 in1019.6 mb 0.00 in0.0 mm 0.00 in0.0 mm 0.00 in0.0 mm
08:50 AM 91.6°F33.1°C 81.3°F27.4°C 72% 2.0 mph E3.2 kmh E -- 30.11 in1019.6 mb 0.00 in0.0 mm 0.00 in0.0 mm 0.00 in0.0 mm
08:55 AM 90.7°F32.6°C 80.4°F26.9°C 72% 3.0 mph S4.8 kmh S -- 30.11 in1019.6 mb 0.00 in0.0 mm 0.00 in0.0 mm 0.00 in0.0 mm
09:00 AM 90.7°F32.6°C 80.9°F27.2°C 73% 3.0 mph SW4.8 kmh SW -- 30.11 in1019.6 mb 0.00 in0.0 mm 0.00 in0.0 mm 0.00 in0.0 mm
09:05 AM 91.8°F33.2°C 81.5°F27.5°C 72% 2.0 mph SSW3.2 kmh SSW -- 30.11 in1019.6 mb 0.00 in0.0 mm 0.00 in0.0 mm 0.00 in0.0 mm
09:10 AM 91.2°F32.9°C 81.0°F27.2°C 72% 6.0 mph S9.7 kmh S -- 30.11 in1019.6 mb 0.00 in0.0 mm 0.00 in0.0 mm 0.00 in0.0 mm
09:15 AM 91.2°F32.9°C 81.4°F27.4°C 73% 3.0 mph SW4.8 kmh SW -- 30.11 in1019.6 mb 0.00 in0.0 mm 0.00 in0.0 mm 0.00 in0.0 mm
09:20 AM 91.8°F33.2°C 81.9°F27.7°C 73% 2.0 mph SE3.2 kmh SE -- 30.11 in1019.6 mb 0.00 in0.0 mm 0.00 in0.0 mm 0.00 in0.0 mm
09:25 AM 93.0°F33.9°C 81.4°F27.4°C 69% 3.0 mph S4.8 kmh S -- 30.11 in1019.6 mb 0.00 in0.0 mm 0.00 in0.0 mm 0.00 in0.0 mm
09:30 AM 94.3°F34.6°C 81.7°F27.6°C 67% 3.0 mph SE4.8 kmh SE -- 30.11 in1019.6 mb 0.00 in0.0 mm 0.00 in0.0 mm 0.00 in0.0 mm
09:35 AM 94.6°F34.8°C 81.6°F27.6°C 66% 1.0 mph SSE1.6 kmh SSE -- 30.11 in1019.6 mb 0.00 in0.0 mm 0.00 in0.0 mm 0.00 in0.0 mm
09:40 AM 94.3°F34.6°C 81.7°F27.6°C 67% 2.0 mph E3.2 kmh E -- 30.11 in1019.6 mb 0.00 in0.0 mm 0.00 in0.0 mm 0.00 in0.0 mm
09:45 AM 94.5°F34.7°C 81.4°F27.4°C 66% 3.0 mph ESE4.8 kmh ESE -- 30.11 in1019.6 mb 0.00 in0.0 mm 0.00 in0.0 mm 0.00 in0.0 mm
09:50 AM 95.2°F35.1°C 81.6°F27.6°C 65% 1.0 mph SSE1.6 kmh SSE -- 30.11 in1019.6 mb 0.00 in0.0 mm 0.00 in0.0 mm 0.00 in0.0 mm
09:55 AM 90.0°F32.2°C 79.8°F26.6°C 72% 2.0 mph WSW3.2 kmh WSW -- 30.11 in1019.6 mb 0.00 in0.0 mm 0.00 in0.0 mm 0.00 in0.0 mm
10:00 AM 89.6°F32.0°C 80.2°F26.8°C 74% 3.0 mph SW4.8 kmh SW -- 30.11 in1019.6 mb 0.00 in0.0 mm 0.00 in0.0 mm 0.00 in0.0 mm
10:05 AM 89.4°F31.9°C 79.6°F26.4°C 73% 1.0 mph ESE1.6 kmh ESE -- 30.11 in1019.6 mb 0.00 in0.0 mm 0.00 in0.0 mm 0.00 in0.0 mm
10:10 AM 89.4°F31.9°C 79.2°F26.2°C 72% 3.0 mph ESE4.8 kmh ESE -- 30.11 in1019.6 mb 0.00 in0.0 mm 0.00 in0.0 mm 0.00 in0.0 mm
10:15 AM 89.6°F32.0°C 79.4°F26.3°C 72% 4.0 mph SSW6.4 kmh SSW -- 30.11 in1019.6 mb 0.00 in0.0 mm 0.00 in0.0 mm 0.00 in0.0 mm
10:20 AM 89.2°F31.8°C 79.1°F26.2°C 72% 3.0 mph W4.8 kmh W -- 30.11 in1019.6 mb 0.00 in0.0 mm 0.00 in0.0 mm 0.00 in0.0 mm
10:25 AM 89.4°F31.9°C 79.2°F26.2°C 72% 2.0 mph SSE3.2 kmh SSE -- 30.11 in1019.6 mb 0.00 in0.0 mm 0.00 in0.0 mm 0.00 in0.0 mm
10:30 AM 90.0°F32.2°C 78.5°F25.8°C 69% 4.0 mph SW6.4 kmh SW -- 30.11 in1019.6 mb 0.00 in0.0 mm 0.00 in0.0 mm 0.00 in0.0 mm
10:35 AM 90.0°F32.2°C 78.5°F25.8°C 69% 2.0 mph SW3.2 kmh SW -- 30.11 in1019.6 mb 0.00 in0.0 mm 0.00 in0.0 mm 0.00 in0.0 mm
10:40 AM 90.5°F32.5°C 79.0°F26.1°C 69% 4.0 mph SW6.4 kmh SW -- 30.11 in1019.6 mb 0.00 in0.0 mm 0.00 in0.0 mm 0.00 in0.0 mm
10:45 AM 90.7°F32.6°C 79.1°F26.2°C 69% 2.0 mph W3.2 kmh W -- 30.11 in1019.6 mb 0.00 in0.0 mm 0.00 in0.0 mm 0.00 in0.0 mm
10:50 AM 90.9°F32.7°C 78.9°F26.1°C 68% 3.0 mph WSW4.8 kmh WSW -- 30.11 in1019.6 mb 0.00 in0.0 mm 0.00 in0.0 mm 0.00 in0.0 mm
11:00 AM 91.2°F32.9°C 78.3°F25.7°C 66% 5.0 mph SSE8.0 kmh SSE -- 30.11 in1019.6 mb 0.00 in0.0 mm 0.00 in0.0 mm 0.00 in0.0 mm
11:05 AM 91.2°F32.9°C 77.9°F25.5°C 65% 3.0 mph WSW4.8 kmh WSW -- 30.11 in1019.6 mb 0.00 in0.0 mm 0.00 in0.0 mm 0.00 in0.0 mm
11:10 AM 92.1°F33.4°C 78.2°F25.7°C 64% 6.0 mph ESE9.7 kmh ESE -- 30.11 in1019.6 mb 0.00 in0.0 mm 0.00 in0.0 mm 0.00 in0.0 mm
11:15 AM 92.3°F33.5°C 78.4°F25.8°C 64% 6.0 mph S9.7 kmh S -- 30.11 in1019.6 mb 0.00 in0.0 mm 0.00 in0.0 mm 0.00 in0.0 mm
11:20 AM 92.1°F33.4°C 78.2°F25.7°C 64% 6.0 mph SW9.7 kmh SW -- 30.11 in1019.6 mb 0.00 in0.0 mm 0.00 in0.0 mm 0.00 in0.0 mm
11:25 AM 92.3°F33.5°C 78.4°F25.8°C 64% 8.0 mph SE12.9 kmh SE -- 30.11 in1019.6 mb 0.00 in0.0 mm 0.00 in0.0 mm 0.00 in0.0 mm
11:30 AM 92.8°F33.8°C 78.5°F25.8°C 63% 4.0 mph SW6.4 kmh SW -- 30.11 in1019.6 mb 0.00 in0.0 mm 0.00 in0.0 mm 0.00 in0.0 mm
11:35 AM 92.8°F33.8°C 78.5°F25.8°C 63% 8.0 mph SW12.9 kmh SW -- 30.11 in1019.6 mb 0.00 in0.0 mm 0.00 in0.0 mm 0.00 in0.0 mm
11:40 AM 92.7°F33.7°C 79.2°F26.2°C 65% 5.0 mph ESE8.0 kmh ESE -- 30.11 in1019.6 mb 0.00 in0.0 mm 0.00 in0.0 mm 0.00 in0.0 mm
11:45 AM 93.0°F33.9°C 78.6°F25.9°C 63% 4.0 mph S6.4 kmh S -- 30.10 in1019.3 mb 0.00 in0.0 mm 0.00 in0.0 mm 0.00 in0.0 mm
11:50 AM 93.9°F34.4°C 79.0°F26.1°C 62% 4.0 mph SSE6.4 kmh SSE -- 30.11 in1019.6 mb 0.00 in0.0 mm 0.00 in0.0 mm 0.00 in0.0 mm
11:55 AM 94.6°F34.8°C 79.2°F26.2°C 61% 6.0 mph W9.7 kmh W -- 30.11 in1019.6 mb 0.00 in0.0 mm 0.00 in0.0 mm 0.00 in0.0 mm
12:00 PM 94.6°F34.8°C 79.7°F26.5°C 62% 5.0 mph SW8.0 kmh SW -- 30.11 in1019.6 mb 0.00 in0.0 mm 0.00 in0.0 mm 0.00 in0.0 mm
12:05 PM 95.2°F35.1°C 79.2°F26.2°C 60% 4.0 mph ESE6.4 kmh ESE -- 30.10 in1019.3 mb 0.00 in0.0 mm 0.00 in0.0 mm 0.00 in0.0 mm
12:10 PM 94.6°F34.8°C 79.2°F26.2°C 61% 3.0 mph W4.8 kmh W -- 30.10 in1019.3 mb 0.00 in0.0 mm 0.00 in0.0 mm 0.00 in0.0 mm
12:15 PM 93.6°F34.2°C 78.7°F25.9°C 62% 3.0 mph SSW4.8 kmh SSW -- 30.10 in1019.3 mb 0.00 in0.0 mm 0.00 in0.0 mm 0.00 in0.0 mm
12:20 PM 94.3°F34.6°C 79.8°F26.6°C 63% 6.0 mph SW9.7 kmh SW -- 30.10 in1019.3 mb 0.00 in0.0 mm 0.00 in0.0 mm 0.00 in0.0 mm
12:25 PM 95.2°F35.1°C 79.2°F26.2°C 60% 2.0 mph SSW3.2 kmh SSW -- 30.10 in1019.3 mb 0.00 in0.0 mm 0.00 in0.0 mm 0.00 in0.0 mm
12:30 PM 95.9°F35.5°C 78.8°F26.0°C 58% 4.0 mph SSE6.4 kmh SSE -- 30.10 in1019.3 mb 0.00 in0.0 mm 0.00 in0.0 mm 0.00 in0.0 mm
12:35 PM 95.7°F35.4°C 79.2°F26.2°C 59% 4.0 mph SE6.4 kmh SE -- 30.10 in1019.3 mb 0.00 in0.0 mm 0.00 in0.0 mm 0.00 in0.0 mm
12:40 PM 96.3°F35.7°C 79.7°F26.5°C 59% 3.0 mph ESE4.8 kmh ESE -- 30.10 in1019.3 mb 0.00 in0.0 mm 0.00 in0.0 mm 0.00 in0.0 mm
12:45 PM 96.3°F35.7°C 79.7°F26.5°C 59% 4.0 mph SE6.4 kmh SE -- 30.09 in1019.0 mb 0.00 in0.0 mm 0.00 in0.0 mm 0.00 in0.0 mm
12:50 PM 95.4°F35.2°C 78.9°F26.1°C 59% 4.0 mph SW6.4 kmh SW -- 30.09 in1019.0 mb 0.00 in0.0 mm 0.00 in0.0 mm 0.00 in0.0 mm
12:55 PM 96.6°F35.9°C 80.0°F26.7°C 59% 5.0 mph W8.0 kmh W -- 30.09 in1019.0 mb 0.00 in0.0 mm 0.00 in0.0 mm 0.00 in0.0 mm
01:00 PM 96.4°F35.8°C 79.4°F26.3°C 58% 3.0 mph WSW4.8 kmh WSW -- 30.09 in1019.0 mb 0.00 in0.0 mm 0.00 in0.0 mm 0.00 in0.0 mm
01:05 PM 96.1°F35.6°C 78.5°F25.8°C 57% 6.0 mph SSW9.7 kmh SSW -- 30.09 in1019.0 mb 0.00 in0.0 mm 0.00 in0.0 mm 0.00 in0.0 mm
01:10 PM 97.2°F36.2°C 80.0°F26.7°C 58% 6.0 mph SSW9.7 kmh SSW -- 30.08 in1018.6 mb 0.00 in0.0 mm 0.00 in0.0 mm 0.00 in0.0 mm
01:15 PM 96.6°F35.9°C 79.0°F26.1°C 57% 2.0 mph ESE3.2 kmh ESE -- 30.08 in1018.6 mb 0.00 in0.0 mm 0.00 in0.0 mm 0.00 in0.0 mm
01:20 PM 97.2°F36.2°C 79.5°F26.4°C 57% 2.0 mph W3.2 kmh W -- 30.08 in1018.6 mb 0.00 in0.0 mm 0.00 in0.0 mm 0.00 in0.0 mm
01:25 PM 97.9°F36.6°C 79.6°F26.4°C 56% 3.0 mph ESE4.8 kmh ESE -- 30.08 in1018.6 mb 0.00 in0.0 mm 0.00 in0.0 mm 0.00 in0.0 mm
01:30 PM 97.3°F36.3°C 79.7°F26.5°C 57% 4.0 mph ESE6.4 kmh ESE -- 30.07 in1018.3 mb 0.00 in0.0 mm 0.00 in0.0 mm 0.00 in0.0 mm
01:35 PM 96.8°F36.0°C 79.2°F26.2°C 57% 2.0 mph ESE3.2 kmh ESE -- 30.07 in1018.3 mb 0.00 in0.0 mm 0.00 in0.0 mm 0.00 in0.0 mm
01:40 PM 98.1°F36.7°C 79.8°F26.6°C 56% 9.0 mph SSE14.5 kmh SSE -- 30.07 in1018.3 mb 0.00 in0.0 mm 0.00 in0.0 mm 0.00 in0.0 mm
01:45 PM 97.2°F36.2°C 79.5°F26.4°C 57% 4.0 mph SSE6.4 kmh SSE -- 30.07 in1018.3 mb 0.00 in0.0 mm 0.00 in0.0 mm 0.00 in0.0 mm
01:50 PM 97.5°F36.4°C 79.8°F26.6°C 57% 2.0 mph ESE3.2 kmh ESE -- 30.06 in1017.9 mb 0.00 in0.0 mm 0.00 in0.0 mm 0.00 in0.0 mm
01:55 PM 97.9°F36.6°C 79.6°F26.4°C 56% 4.0 mph W6.4 kmh W -- 30.07 in1018.3 mb 0.00 in0.0 mm 0.00 in0.0 mm 0.00 in0.0 mm
02:00 PM 98.2°F36.8°C 80.0°F26.7°C 56% 4.0 mph SW6.4 kmh SW -- 30.06 in1017.9 mb 0.00 in0.0 mm 0.00 in0.0 mm 0.00 in0.0 mm
02:05 PM 97.7°F36.5°C 78.9°F26.1°C 55% 7.0 mph W11.3 kmh W -- 30.06 in1017.9 mb 0.00 in0.0 mm 0.00 in0.0 mm 0.00 in0.0 mm
02:10 PM 97.5°F36.4°C 78.8°F26.0°C 55% 5.0 mph E8.0 kmh E -- 30.06 in1017.9 mb 0.00 in0.0 mm 0.00 in0.0 mm 0.00 in0.0 mm
02:15 PM 97.3°F36.3°C 78.0°F25.6°C 54% 7.0 mph S11.3 kmh S -- 30.06 in1017.9 mb 0.00 in0.0 mm 0.00 in0.0 mm 0.00 in0.0 mm
02:20 PM 97.5°F36.4°C 78.8°F26.0°C 55% 7.0 mph W11.3 kmh W -- 30.06 in1017.9 mb 0.00 in0.0 mm 0.00 in0.0 mm 0.00 in0.0 mm
02:25 PM 98.2°F36.8°C 79.4°F26.3°C 55% 7.0 mph E11.3 kmh E -- 30.05 in1017.6 mb 0.00 in0.0 mm 0.00 in0.0 mm 0.00 in0.0 mm
02:30 PM 98.4°F36.9°C 78.5°F25.8°C 53% 8.0 mph S12.9 kmh S -- 30.05 in1017.6 mb 0.00 in0.0 mm 0.00 in0.0 mm 0.00 in0.0 mm
02:35 PM 99.9°F37.7°C 79.8°F26.6°C 53% 3.0 mph SE4.8 kmh SE -- 30.06 in1017.9 mb 0.00 in0.0 mm 0.00 in0.0 mm 0.00 in0.0 mm
02:40 PM 99.0°F37.2°C 79.0°F26.1°C 53% 7.0 mph WSW11.3 kmh WSW -- 30.05 in1017.6 mb 0.00 in0.0 mm 0.00 in0.0 mm 0.00 in0.0 mm
02:45 PM 97.9°F36.6°C 78.5°F25.8°C 54% 3.0 mph SE4.8 kmh SE -- 30.05 in1017.6 mb 0.00 in0.0 mm 0.00 in0.0 mm 0.00 in0.0 mm
02:50 PM 98.6°F37.0°C 78.6°F25.9°C 53% 6.0 mph SSW9.7 kmh SSW -- 30.05 in1017.6 mb 0.00 in0.0 mm 0.00 in0.0 mm 0.00 in0.0 mm
02:55 PM 98.1°F36.7°C 78.1°F25.6°C 53% 1.0 mph E1.6 kmh E -- 30.05 in1017.6 mb 0.00 in0.0 mm 0.00 in0.0 mm 0.00 in0.0 mm
03:00 PM 99.5°F37.5°C 78.3°F25.7°C 51% 8.0 mph S12.9 kmh S -- 30.04 in1017.3 mb 0.00 in0.0 mm 0.00 in0.0 mm 0.00 in0.0 mm
03:05 PM 98.8°F37.1°C 77.7°F25.4°C 51% 2.0 mph WNW3.2 kmh WNW -- 30.04 in1017.3 mb 0.00 in0.0 mm 0.00 in0.0 mm 0.00 in0.0 mm
03:10 PM 98.4°F36.9°C 77.3°F25.2°C 51% 4.0 mph SSE6.4 kmh SSE -- 30.03 in1016.9 mb 0.00 in0.0 mm 0.00 in0.0 mm 0.00 in0.0 mm
03:15 PM 99.7°F37.6°C 76.7°F24.8°C 48% 3.0 mph ESE4.8 kmh ESE -- 30.03 in1016.9 mb 0.00 in0.0 mm 0.00 in0.0 mm 0.00 in0.0 mm
03:20 PM 99.7°F37.6°C 77.9°F25.5°C 50% 6.0 mph W9.7 kmh W -- 30.03 in1016.9 mb 0.00 in0.0 mm 0.00 in0.0 mm 0.00 in0.0 mm
03:25 PM 99.1°F37.3°C 78.0°F25.6°C 51% 3.0 mph S4.8 kmh S -- 30.03 in1016.9 mb 0.00 in0.0 mm 0.00 in0.0 mm 0.00 in0.0 mm
03:30 PM 99.5°F37.5°C 77.1°F25.1°C 49% 3.0 mph SSW4.8 kmh SSW -- 30.03 in1016.9 mb 0.00 in0.0 mm 0.00 in0.0 mm 0.00 in0.0 mm
03:35 PM 99.5°F37.5°C 77.1°F25.1°C 49% 4.0 mph E6.4 kmh E -- 30.03 in1016.9 mb 0.00 in0.0 mm 0.00 in0.0 mm 0.00 in0.0 mm
03:40 PM 99.0°F37.2°C 77.2°F25.1°C 50% 5.0 mph E8.0 kmh E -- 30.02 in1016.6 mb 0.00 in0.0 mm 0.00 in0.0 mm 0.00 in0.0 mm
03:45 PM 99.0°F37.2°C 79.5°F26.4°C 54% 2.0 mph ESE3.2 kmh ESE -- 30.02 in1016.6 mb 0.00 in0.0 mm 0.00 in0.0 mm 0.00 in0.0 mm
03:50 PM 97.7°F36.5°C 80.5°F26.9°C 58% 8.0 mph SE12.9 kmh SE -- 30.03 in1016.9 mb 0.00 in0.0 mm 0.00 in0.0 mm 0.00 in0.0 mm
03:55 PM 98.1°F36.7°C 81.4°F27.4°C 59% 3.0 mph ESE4.8 kmh ESE -- 30.03 in1016.9 mb 0.00 in0.0 mm 0.00 in0.0 mm 0.00 in0.0 mm
04:00 PM 98.8°F37.1°C 81.6°F27.6°C 58% 2.0 mph W3.2 kmh W -- 30.03 in1016.9 mb 0.00 in0.0 mm 0.00 in0.0 mm 0.00 in0.0 mm
04:05 PM 96.3°F35.7°C 80.7°F27.1°C 61% 2.0 mph NNE3.2 kmh NNE -- 30.02 in1016.6 mb 0.00 in0.0 mm 0.00 in0.0 mm 0.00 in0.0 mm
04:10 PM 95.9°F35.5°C 80.4°F26.9°C 61% 4.0 mph WSW6.4 kmh WSW -- 30.02 in1016.6 mb 0.00 in0.0 mm 0.00 in0.0 mm 0.00 in0.0 mm
04:15 PM 95.2°F35.1°C 80.2°F26.8°C 62% 4.0 mph S6.4 kmh S -- 30.02 in1016.6 mb 0.00 in0.0 mm 0.00 in0.0 mm 0.00 in0.0 mm
04:20 PM 95.9°F35.5°C 80.4°F26.9°C 61% 3.0 mph NW4.8 kmh NW -- 30.02 in1016.6 mb 0.00 in0.0 mm 0.00 in0.0 mm 0.00 in0.0 mm
04:25 PM 93.9°F34.4°C 80.0°F26.7°C 64% 6.0 mph SSE9.7 kmh SSE -- 30.02 in1016.6 mb 0.00 in0.0 mm 0.00 in0.0 mm 0.00 in0.0 mm
04:30 PM 95.9°F35.5°C 80.9°F27.2°C 62% 3.0 mph ESE4.8 kmh ESE -- 30.02 in1016.6 mb 0.00 in0.0 mm 0.00 in0.0 mm 0.00 in0.0 mm
04:35 PM 95.5°F35.3°C 80.0°F26.7°C 61% 5.0 mph SW8.0 kmh SW -- 30.02 in1016.6 mb 0.00 in0.0 mm 0.00 in0.0 mm 0.00 in0.0 mm
04:40 PM 95.0°F35.0°C 80.5°F26.9°C 63% 5.0 mph ESE8.0 kmh ESE -- 30.02 in1016.6 mb 0.00 in0.0 mm 0.00 in0.0 mm 0.00 in0.0 mm
04:45 PM 96.6°F35.9°C 80.6°F27.0°C 60% 1.0 mph NNE1.6 kmh NNE -- 30.02 in1016.6 mb 0.00 in0.0 mm 0.00 in0.0 mm 0.00 in0.0 mm
04:50 PM 95.0°F35.0°C 80.0°F26.7°C 62% 4.0 mph S6.4 kmh S -- 30.02 in1016.6 mb 0.00 in0.0 mm 0.00 in0.0 mm 0.00 in0.0 mm
04:55 PM 95.7°F35.4°C 80.7°F27.1°C 62% 6.0 mph SSE9.7 kmh SSE -- 30.02 in1016.6 mb 0.00 in0.0 mm 0.00 in0.0 mm 0.00 in0.0 mm
05:00 PM 94.5°F34.7°C 80.5°F26.9°C 64% 4.0 mph S6.4 kmh S -- 30.02 in1016.6 mb 0.00 in0.0 mm 0.00 in0.0 mm 0.00 in0.0 mm
05:05 PM 96.4°F35.8°C 80.9°F27.2°C 61% 6.0 mph SE9.7 kmh SE -- 30.01 in1016.3 mb 0.00 in0.0 mm 0.00 in0.0 mm 0.00 in0.0 mm
05:10 PM 94.8°F34.9°C 80.8°F27.1°C 64% 4.0 mph SW6.4 kmh SW -- 30.01 in1016.3 mb 0.00 in0.0 mm 0.00 in0.0 mm 0.00 in0.0 mm
05:15 PM 93.6°F34.2°C 80.1°F26.7°C 65% 5.0 mph SSW8.0 kmh SSW -- 30.01 in1016.3 mb 0.00 in0.0 mm 0.00 in0.0 mm 0.00 in0.0 mm
05:20 PM 95.0°F35.0°C 80.5°F26.9°C 63% 2.0 mph SE3.2 kmh SE -- 30.01 in1016.3 mb 0.00 in0.0 mm 0.00 in0.0 mm 0.00 in0.0 mm
05:25 PM 94.8°F34.9°C 80.3°F26.8°C 63% 10.0 mph SSW16.1 kmh SSW -- 30.02 in1016.6 mb 0.00 in0.0 mm 0.00 in0.0 mm 0.00 in0.0 mm
05:30 PM 93.7°F34.3°C 80.7°F27.1°C 66% 8.0 mph SSE12.9 kmh SSE -- 30.02 in1016.6 mb 0.00 in0.0 mm 0.00 in0.0 mm 0.00 in0.0 mm
05:35 PM 92.5°F33.6°C 80.0°F26.7°C 67% 4.0 mph SE6.4 kmh SE -- 30.02 in1016.6 mb 0.00 in0.0 mm 0.00 in0.0 mm 0.00 in0.0 mm
05:40 PM 90.7°F32.6°C 79.6°F26.4°C 70% 6.0 mph WSW9.7 kmh WSW -- 30.03 in1016.9 mb 0.00 in0.0 mm 0.00 in0.0 mm 0.00 in0.0 mm
05:45 PM 87.1°F30.6°C 78.2°F25.7°C 75% 15.0 mph SSW24.1 kmh SSW -- 30.04 in1017.3 mb 0.00 in0.0 mm 0.00 in0.0 mm 0.00 in0.0 mm
05:50 PM 81.7°F27.6°C 76.7°F24.8°C 85% 4.0 mph SW6.4 kmh SW -- 30.06 in1017.9 mb 0.06 in1.5 mm 0.72 in18.3 mm 0.06 in1.5 mm
05:55 PM 81.0°F27.2°C 76.0°F24.4°C 85% 4.0 mph WNW6.4 kmh WNW -- 30.05 in1017.6 mb 0.06 in1.5 mm 0.00 in0.0 mm 0.06 in1.5 mm
06:00 PM 80.2°F26.8°C 76.0°F24.4°C 87% 3.0 mph NW4.8 kmh NW -- 30.04 in1017.3 mb 0.07 in1.8 mm 0.01 in0.3 mm 0.07 in1.8 mm
06:05 PM 79.5°F26.4°C 75.3°F24.1°C 87% 2.0 mph SW3.2 kmh SW -- 30.04 in1017.3 mb 0.07 in1.8 mm 0.00 in0.0 mm 0.07 in1.8 mm
06:10 PM 79.2°F26.2°C 74.9°F23.8°C 87% 1.0 mph SW1.6 kmh SW -- 30.03 in1016.9 mb 0.07 in1.8 mm 0.00 in0.0 mm 0.07 in1.8 mm
06:25 PM 78.1°F25.6°C 74.6°F23.7°C 89% Calm Calm -- 30.04 in1017.3 mb 0.07 in1.8 mm 0.00 in0.0 mm 0.07 in1.8 mm
06:30 PM 78.3°F25.7°C 74.7°F23.7°C 89% 2.0 mph SE3.2 kmh SE -- 30.04 in1017.3 mb 0.07 in1.8 mm 0.00 in0.0 mm 0.07 in1.8 mm
06:35 PM 78.3°F25.7°C 74.7°F23.7°C 89% 3.0 mph ESE4.8 kmh ESE -- 30.03 in1016.9 mb 0.07 in1.8 mm 0.00 in0.0 mm 0.07 in1.8 mm
06:40 PM 78.3°F25.7°C 74.7°F23.7°C 89% Calm Calm -- 30.03 in1016.9 mb 0.07 in1.8 mm 0.00 in0.0 mm 0.07 in1.8 mm
06:45 PM 78.6°F25.9°C 75.1°F23.9°C 89% Calm Calm -- 30.03 in1016.9 mb 0.01 in0.3 mm 0.00 in0.0 mm 0.07 in1.8 mm
06:50 PM 78.3°F25.7°C 74.7°F23.7°C 89% Calm Calm -- 30.03 in1016.9 mb 0.01 in0.3 mm 0.00 in0.0 mm 0.07 in1.8 mm
06:55 PM 78.6°F25.9°C 75.1°F23.9°C 89% Calm Calm -- 30.03 in1016.9 mb 0.00 in0.0 mm 0.00 in0.0 mm 0.07 in1.8 mm
07:00 PM 78.8°F26.0°C 75.3°F24.1°C 89% Calm Calm -- 30.03 in1016.9 mb 0.00 in0.0 mm 0.00 in0.0 mm 0.07 in1.8 mm
07:05 PM 78.6°F25.9°C 75.1°F23.9°C 89% Calm Calm -- 30.04 in1017.3 mb 0.00 in0.0 mm 0.00 in0.0 mm 0.07 in1.8 mm
07:10 PM 78.6°F25.9°C 75.1°F23.9°C 89% Calm Calm -- 30.04 in1017.3 mb 0.00 in0.0 mm 0.00 in0.0 mm 0.07 in1.8 mm
07:15 PM 78.6°F25.9°C 75.1°F23.9°C 89% Calm Calm -- 30.04 in1017.3 mb 0.00 in0.0 mm 0.00 in0.0 mm 0.07 in1.8 mm
07:20 PM 78.8°F26.0°C 75.6°F24.2°C 90% Calm Calm -- 30.04 in1017.3 mb 0.00 in0.0 mm 0.00 in0.0 mm 0.07 in1.8 mm
07:25 PM 79.5°F26.4°C 75.6°F24.2°C 88% Calm Calm -- 30.04 in1017.3 mb 0.00 in0.0 mm 0.00 in0.0 mm 0.07 in1.8 mm
07:30 PM 78.8°F26.0°C 75.3°F24.1°C 89% Calm Calm -- 30.04 in1017.3 mb 0.00 in0.0 mm 0.00 in0.0 mm 0.07 in1.8 mm
07:35 PM 79.5°F26.4°C 76.0°F24.4°C 89% 2.0 mph ESE3.2 kmh ESE -- 30.03 in1016.9 mb 0.00 in0.0 mm 0.00 in0.0 mm 0.07 in1.8 mm
07:40 PM 79.3°F26.3°C 75.8°F24.3°C 89% 1.0 mph SE1.6 kmh SE -- 30.04 in1017.3 mb 0.01 in0.3 mm 0.12 in3.0 mm 0.08 in2.0 mm
07:45 PM 79.3°F26.3°C 75.8°F24.3°C 89% 2.0 mph SE3.2 kmh SE -- 30.05 in1017.6 mb 0.01 in0.3 mm 0.00 in0.0 mm 0.08 in2.0 mm
07:50 PM 79.5°F26.4°C 76.0°F24.4°C 89% Calm Calm -- 30.05 in1017.6 mb 0.01 in0.3 mm 0.00 in0.0 mm 0.08 in2.0 mm
07:55 PM 79.9°F26.6°C 76.3°F24.6°C 89% Calm Calm -- 30.05 in1017.6 mb 0.01 in0.3 mm 0.00 in0.0 mm 0.08 in2.0 mm
08:00 PM 79.2°F26.2°C 75.6°F24.2°C 89% Calm Calm -- 30.06 in1017.9 mb 0.01 in0.3 mm 0.00 in0.0 mm 0.08 in2.0 mm
08:05 PM 79.0°F26.1°C 75.5°F24.2°C 89% Calm Calm -- 30.05 in1017.6 mb 0.01 in0.3 mm 0.00 in0.0 mm 0.08 in2.0 mm
08:10 PM 79.9°F26.6°C 76.3°F24.6°C 89% Calm Calm -- 30.05 in1017.6 mb 0.01 in0.3 mm 0.00 in0.0 mm 0.08 in2.0 mm
08:20 PM 79.3°F26.3°C 75.8°F24.3°C 89% Calm Calm -- 30.05 in1017.6 mb 0.01 in0.3 mm 0.00 in0.0 mm 0.08 in2.0 mm
08:25 PM 79.2°F26.2°C 76.0°F24.4°C 90% 1.0 mph SE1.6 kmh SE -- 30.05 in1017.6 mb 0.01 in0.3 mm 0.00 in0.0 mm 0.08 in2.0 mm
08:35 PM 79.0°F26.1°C 75.8°F24.3°C 90% Calm Calm -- 30.05 in1017.6 mb 0.00 in0.0 mm 0.00 in0.0 mm 0.08 in2.0 mm
08:40 PM 79.3°F26.3°C 76.1°F24.5°C 90% 2.0 mph S3.2 kmh S -- 30.05 in1017.6 mb 0.00 in0.0 mm 0.00 in0.0 mm 0.08 in2.0 mm
08:45 PM 79.3°F26.3°C 76.1°F24.5°C 90% Calm Calm -- 30.05 in1017.6 mb 0.00 in0.0 mm 0.00 in0.0 mm 0.08 in2.0 mm
08:50 PM 79.3°F26.3°C 76.1°F24.5°C 90% Calm Calm -- 30.05 in1017.6 mb 0.00 in0.0 mm 0.00 in0.0 mm 0.08 in2.0 mm
08:55 PM 79.5°F26.4°C 76.3°F24.6°C 90% Calm Calm -- 30.05 in1017.6 mb 0.00 in0.0 mm 0.00 in0.0 mm 0.08 in2.0 mm
09:00 PM 79.5°F26.4°C 76.3°F24.6°C 90% Calm Calm -- 30.05 in1017.6 mb 0.00 in0.0 mm 0.00 in0.0 mm 0.08 in2.0 mm
09:05 PM 79.3°F26.3°C 76.1°F24.5°C 90% Calm Calm -- 30.06 in1017.9 mb 0.00 in0.0 mm 0.00 in0.0 mm 0.08 in2.0 mm
09:10 PM 79.2°F26.2°C 76.0°F24.4°C 90% Calm Calm -- 30.06 in1017.9 mb 0.00 in0.0 mm 0.00 in0.0 mm 0.08 in2.0 mm
09:15 PM 79.2°F26.2°C 76.0°F24.4°C 90% Calm Calm -- 30.06 in1017.9 mb 0.00 in0.0 mm 0.00 in0.0 mm 0.08 in2.0 mm
09:20 PM 79.3°F26.3°C 76.1°F24.5°C 90% Calm Calm -- 30.07 in1018.3 mb 0.00 in0.0 mm 0.00 in0.0 mm 0.08 in2.0 mm
09:25 PM 79.3°F26.3°C 76.1°F24.5°C 90% Calm Calm -- 30.07 in1018.3 mb 0.00 in0.0 mm 0.00 in0.0 mm 0.08 in2.0 mm
09:30 PM 79.2°F26.2°C 76.0°F24.4°C 90% Calm Calm -- 30.07 in1018.3 mb 0.00 in0.0 mm 0.00 in0.0 mm 0.08 in2.0 mm
09:35 PM 79.5°F26.4°C 76.3°F24.6°C 90% Calm Calm -- 30.07 in1018.3 mb 0.00 in0.0 mm 0.00 in0.0 mm 0.08 in2.0 mm
09:40 PM 79.2°F26.2°C 76.0°F24.4°C 90% Calm Calm -- 30.07 in1018.3 mb 0.00 in0.0 mm 0.00 in0.0 mm 0.08 in2.0 mm
09:55 PM 79.2°F26.2°C 76.0°F24.4°C 90% Calm Calm -- 30.08 in1018.6 mb 0.00 in0.0 mm 0.00 in0.0 mm 0.08 in2.0 mm
10:00 PM 78.8°F26.0°C 75.6°F24.2°C 90% Calm Calm -- 30.08 in1018.6 mb 0.00 in0.0 mm 0.00 in0.0 mm 0.08 in2.0 mm
10:05 PM 78.8°F26.0°C 75.6°F24.2°C 90% Calm Calm -- 30.08 in1018.6 mb 0.00 in0.0 mm 0.00 in0.0 mm 0.08 in2.0 mm
10:10 PM 78.6°F25.9°C 75.8°F24.3°C 91% Calm Calm -- 30.08 in1018.6 mb 0.00 in0.0 mm 0.00 in0.0 mm 0.08 in2.0 mm
10:15 PM 78.8°F26.0°C 75.9°F24.4°C 91% 2.0 mph WSW3.2 kmh WSW -- 30.08 in1018.6 mb 0.00 in0.0 mm 0.00 in0.0 mm 0.08 in2.0 mm
10:20 PM 78.8°F26.0°C 75.9°F24.4°C 91% Calm Calm -- 30.08 in1018.6 mb 0.00 in0.0 mm 0.00 in0.0 mm 0.08 in2.0 mm
10:25 PM 79.0°F26.1°C 76.1°F24.5°C 91% Calm Calm -- 30.08 in1018.6 mb 0.00 in0.0 mm 0.00 in0.0 mm 0.08 in2.0 mm
10:30 PM 79.2°F26.2°C 76.0°F24.4°C 90% Calm Calm -- 30.09 in1019.0 mb 0.00 in0.0 mm 0.00 in0.0 mm 0.08 in2.0 mm
10:35 PM 79.2°F26.2°C 76.0°F24.4°C 90% Calm Calm -- 30.09 in1019.0 mb 0.00 in0.0 mm 0.00 in0.0 mm 0.08 in2.0 mm
10:45 PM 79.3°F26.3°C 76.1°F24.5°C 90% Calm Calm -- 30.09 in1019.0 mb 0.00 in0.0 mm 0.00 in0.0 mm 0.08 in2.0 mm
10:50 PM 79.3°F26.3°C 76.1°F24.5°C 90% Calm Calm -- 30.09 in1019.0 mb 0.00 in0.0 mm 0.00 in0.0 mm 0.08 in2.0 mm
10:55 PM 79.2°F26.2°C 76.0°F24.4°C 90% Calm Calm -- 30.09 in1019.0 mb 0.00 in0.0 mm 0.00 in0.0 mm 0.08 in2.0 mm
11:00 PM 79.3°F26.3°C 76.1°F24.5°C 90% Calm Calm -- 30.09 in1019.0 mb 0.00 in0.0 mm 0.00 in0.0 mm 0.08 in2.0 mm
11:05 PM 79.2°F26.2°C 76.0°F24.4°C 90% Calm Calm -- 30.09 in1019.0 mb 0.00 in0.0 mm 0.00 in0.0 mm 0.08 in2.0 mm
11:10 PM 79.2°F26.2°C 76.0°F24.4°C 90% Calm Calm -- 30.09 in1019.0 mb 0.00 in0.0 mm 0.00 in0.0 mm 0.08 in2.0 mm
11:15 PM 79.3°F26.3°C 76.1°F24.5°C 90% Calm Calm -- 30.08 in1018.6 mb 0.00 in0.0 mm 0.00 in0.0 mm 0.08 in2.0 mm
11:20 PM 79.5°F26.4°C 76.3°F24.6°C 90% Calm Calm -- 30.08 in1018.6 mb 0.00 in0.0 mm 0.00 in0.0 mm 0.08 in2.0 mm
11:25 PM 79.3°F26.3°C 76.1°F24.5°C 90% Calm Calm -- 30.08 in1018.6 mb 0.00 in0.0 mm 0.00 in0.0 mm 0.08 in2.0 mm
11:30 PM 79.3°F26.3°C 76.1°F24.5°C 90% Calm Calm -- 30.09 in1019.0 mb 0.00 in0.0 mm 0.00 in0.0 mm 0.08 in2.0 mm
11:35 PM 79.2°F26.2°C 76.0°F24.4°C 90% Calm Calm -- 30.08 in1018.6 mb 0.00 in0.0 mm 0.00 in0.0 mm 0.08 in2.0 mm
11:40 PM 79.2°F26.2°C 76.0°F24.4°C 90% 1.0 mph W1.6 kmh W -- 30.09 in1019.0 mb 0.00 in0.0 mm 0.00 in0.0 mm 0.08 in2.0 mm
11:45 PM 79.0°F26.1°C 75.8°F24.3°C 90% 2.0 mph SSE3.2 kmh SSE -- 30.08 in1018.6 mb 0.00 in0.0 mm 0.00 in0.0 mm 0.08 in2.0 mm
11:50 PM 79.0°F26.1°C 75.8°F24.3°C 90% Calm Calm -- 30.08 in1018.6 mb 0.00 in0.0 mm 0.00 in0.0 mm 0.08 in2.0 mm
11:55 PM 79.2°F26.2°C 76.0°F24.4°C 90% Calm Calm -- 30.08 in1018.6 mb 0.00 in0.0 mm 0.00 in0.0 mm 0.08 in2.0 mm